createdAt,value
2023-01-17T00:01:15.769Z,9.18
2023-01-17T00:04:00.904Z,9.50
2023-01-17T00:06:45.941Z,7.38
2023-01-17T00:09:31.840Z,7.97
2023-01-17T00:11:58.618Z,6.93
2023-01-17T00:14:25.200Z,7.07
2023-01-17T00:16:51.504Z,8.95
2023-01-17T00:19:36.611Z,8.18
2023-01-17T00:22:27.387Z,6.68
2023-01-17T00:25:12.159Z,5.88
2023-01-17T00:27:38.512Z,6.55
2023-01-17T00:30:05.025Z,6.22
2023-01-17T00:32:31.334Z,5.88
2023-01-17T00:34:57.640Z,5.80
2023-01-17T00:37:24.058Z,3.55
2023-01-17T00:39:50.346Z,4.13
2023-01-17T00:42:16.620Z,3.42
2023-01-17T00:45:01.769Z,2.25
2023-01-17T00:47:46.595Z,4.57
2023-01-17T00:50:31.477Z,1.27
2023-01-17T00:53:16.521Z,0.63
2023-01-17T00:56:01.576Z,0.75
2023-01-17T00:58:46.278Z,1.23
2023-01-17T01:01:31.208Z,4.10
2023-01-17T01:04:16.334Z,0.60
2023-01-17T01:07:01.291Z,1.90
2023-01-17T01:09:46.096Z,2.45
2023-01-17T01:12:31.045Z,1.08
2023-01-17T01:15:15.748Z,1.40
2023-01-17T01:18:00.621Z,4.97
2023-01-17T01:20:45.587Z,0.70
2023-01-17T01:23:30.428Z,0.95
2023-01-17T01:26:15.239Z,19.90
2023-01-17T01:29:00.029Z,1.52
2023-01-17T01:31:44.979Z,4.57
2023-01-17T01:34:11.343Z,2.45
2023-01-17T01:36:37.706Z,1.40
2023-01-17T01:39:04.032Z,1.05
2023-01-17T01:41:30.362Z,4.65
2023-01-17T01:43:56.920Z,2.03
2023-01-17T01:46:29.520Z,3.45
2023-01-17T01:48:57.620Z,4.07
2023-01-17T01:51:26.157Z,2.25
2023-01-17T01:53:54.951Z,1.85
2023-01-17T01:56:23.369Z,0.60
2023-01-17T01:58:50.751Z,2.10
2023-01-17T02:01:17.947Z,3.10
2023-01-17T02:03:45.834Z,2.08
2023-01-17T02:06:16.646Z,2.67
2023-01-17T02:08:43.578Z,1.05
2023-01-17T02:11:10.566Z,1.85
2023-01-17T02:13:36.898Z,1.00
2023-01-17T02:16:09.394Z,1.75
2023-01-17T02:18:35.709Z,1.45
2023-01-17T02:21:08.128Z,2.75
2023-01-17T02:23:44.136Z,0.88
2023-01-17T02:26:28.912Z,1.58
2023-01-17T02:29:10.893Z,3.47
2023-01-17T02:31:40.382Z,1.20
2023-01-17T02:34:29.927Z,1.05
2023-01-17T02:37:01.417Z,2.47
2023-01-17T02:39:34.573Z,3.75
2023-01-17T02:42:04.713Z,0.50
2023-01-17T02:44:39.826Z,0.40
2023-01-17T02:47:18.680Z,0.90
2023-01-17T02:49:45.098Z,1.13
2023-01-17T02:52:11.830Z,3.90
2023-01-17T02:55:01.732Z,2.67
2023-01-17T02:57:46.741Z,1.48
2023-01-17T03:00:36.350Z,0.73
2023-01-17T03:03:15.120Z,0.40
2023-01-17T03:05:44.520Z,2.28
2023-01-17T03:08:12.780Z,0.75
2023-01-17T03:10:39.625Z,0.50
2023-01-17T03:13:06.012Z,0.47
2023-01-17T03:15:32.424Z,1.25
2023-01-17T03:18:01.984Z,0.77
2023-01-17T03:20:28.459Z,2.90
2023-01-17T03:22:54.800Z,1.73
2023-01-17T03:25:21.160Z,2.35
2023-01-17T03:27:47.696Z,1.80
2023-01-17T03:30:14.252Z,2.45
2023-01-17T03:32:40.675Z,2.47
2023-01-17T03:35:07.329Z,1.15
2023-01-17T03:37:33.683Z,3.70
2023-01-17T03:40:00.130Z,3.70
2023-01-17T03:42:26.502Z,7.00
2023-01-17T03:44:52.866Z,1.63
2023-01-17T03:47:19.228Z,2.35
2023-01-17T03:49:45.588Z,4.63
2023-01-17T03:52:11.961Z,1.85
2023-01-17T03:54:38.383Z,5.68
2023-01-17T03:57:04.794Z,2.78
2023-01-17T03:59:34.225Z,12.95
2023-01-17T04:02:01.040Z,2.25
2023-01-17T04:04:27.487Z,6.68
2023-01-17T04:06:54.686Z,7.32
2023-01-17T04:09:21.201Z,5.90
2023-01-17T04:11:50.899Z,2.92
2023-01-17T04:14:17.717Z,6.55
2023-01-17T04:16:44.127Z,6.47
2023-01-17T04:19:13.893Z,5.22
2023-01-17T04:21:40.266Z,5.60
2023-01-17T04:24:06.812Z,5.35
2023-01-17T04:26:33.139Z,4.25
2023-01-17T04:28:59.499Z,9.00
2023-01-17T04:31:25.908Z,7.18
2023-01-17T04:33:52.340Z,6.10
2023-01-17T04:36:18.788Z,5.38
2023-01-17T04:38:45.122Z,9.00
2023-01-17T04:41:13.581Z,5.72
2023-01-17T04:43:39.996Z,5.35
2023-01-17T04:46:10.114Z,13.45
2023-01-17T04:48:36.725Z,7.57
2023-01-17T04:51:04.437Z,4.93
2023-01-17T04:53:31.995Z,6.53
2023-01-17T04:55:58.445Z,11.15
2023-01-17T04:58:24.927Z,5.45
2023-01-17T05:00:51.819Z,8.50
2023-01-17T05:03:19.023Z,8.95
2023-01-17T05:05:45.484Z,6.57
2023-01-17T05:08:11.850Z,3.88
2023-01-17T05:10:39.552Z,5.20
2023-01-17T05:15:32.637Z,5.15
2023-01-17T05:17:58.985Z,2.65
2023-01-17T05:20:26.572Z,5.32
2023-01-17T05:22:56.815Z,7.47
2023-01-17T05:25:24.419Z,9.75
2023-01-17T05:30:17.685Z,7.07
2023-01-17T05:32:51.096Z,7.38
2023-01-17T05:35:21.912Z,4.93
2023-01-17T05:37:49.364Z,7.40
2023-01-17T05:40:19.651Z,6.15
2023-01-17T05:42:49.989Z,7.32
2023-01-17T05:45:19.442Z,6.60
2023-01-17T05:47:46.772Z,3.55
2023-01-17T05:50:14.178Z,3.95
2023-01-17T05:52:40.554Z,3.08
2023-01-17T05:55:07.540Z,5.70
2023-01-17T05:57:34.355Z,6.38
2023-01-17T06:00:00.796Z,4.97
2023-01-17T06:02:27.435Z,5.93
2023-01-17T06:04:53.818Z,11.57
2023-01-17T06:07:20.264Z,5.60
2023-01-17T06:09:47.052Z,7.78
2023-01-17T06:12:13.481Z,6.75
2023-01-17T06:14:39.835Z,10.80
2023-01-17T06:17:06.252Z,7.53
2023-01-17T06:19:32.571Z,10.05
2023-01-17T06:21:59.000Z,8.63
2023-01-17T06:24:25.332Z,9.57
2023-01-17T06:26:51.731Z,13.77
2023-01-17T06:29:18.140Z,14.80
2023-01-17T06:31:44.469Z,11.38
2023-01-17T06:34:11.124Z,12.73
2023-01-17T06:36:37.527Z,9.13
2023-01-17T06:39:03.956Z,15.50
2023-01-17T06:41:30.436Z,13.93
2023-01-17T06:43:56.997Z,12.43
2023-01-17T06:46:23.528Z,13.40
2023-01-17T06:48:50.043Z,17.05
2023-01-17T06:51:16.427Z,15.73
2023-01-17T06:53:42.944Z,12.57
2023-01-17T06:56:09.390Z,20.52
2023-01-17T06:58:36.026Z,12.32
2023-01-17T07:01:06.520Z,13.07
2023-01-17T07:03:32.974Z,19.45
2023-01-17T07:06:01.061Z,14.57
2023-01-17T07:08:27.841Z,14.43
2023-01-17T07:10:57.924Z,10.20
2023-01-17T07:13:24.293Z,10.60
2023-01-17T07:15:50.616Z,12.05
2023-01-17T07:18:20.701Z,15.73
2023-01-17T07:20:47.043Z,18.92
2023-01-17T07:23:13.357Z,14.65
2023-01-17T07:25:39.703Z,11.60
2023-01-17T07:28:05.973Z,23.58
2023-01-17T07:30:32.509Z,15.63
2023-01-17T07:32:58.831Z,14.57
2023-01-17T07:35:26.754Z,21.55
2023-01-17T07:37:53.618Z,14.50
2023-01-17T07:40:20.638Z,16.13
2023-01-17T07:42:47.411Z,17.63
2023-01-17T07:45:14.970Z,11.30
2023-01-17T07:47:41.385Z,17.42
2023-01-17T07:50:08.500Z,11.88
2023-01-17T07:52:35.075Z,20.65
2023-01-17T07:55:01.395Z,15.20
2023-01-17T07:57:27.649Z,11.80
2023-01-17T07:59:53.996Z,10.88
2023-01-17T08:02:21.613Z,10.05
2023-01-17T08:07:14.457Z,10.75
2023-01-17T08:09:43.892Z,16.60
2023-01-17T08:12:10.414Z,14.65
2023-01-17T08:14:36.752Z,13.15
2023-01-17T08:17:04.005Z,10.70
2023-01-17T08:19:30.350Z,13.65
2023-01-17T08:21:56.651Z,14.98
2023-01-17T08:24:22.930Z,14.40
2023-01-17T08:26:49.195Z,17.98
2023-01-17T08:29:15.493Z,12.80
2023-01-17T08:31:41.872Z,11.77
2023-01-17T08:34:08.187Z,14.98
2023-01-17T08:36:34.541Z,16.38
2023-01-17T08:39:00.874Z,14.32
2023-01-17T08:41:27.813Z,12.23
2023-01-17T08:43:54.140Z,13.50
2023-01-17T08:46:20.452Z,11.65
2023-01-17T08:48:46.813Z,12.32
2023-01-17T08:51:13.369Z,12.32
2023-01-17T08:53:40.619Z,10.82
2023-01-17T08:56:07.021Z,12.98
2023-01-17T08:58:35.000Z,15.52
2023-01-17T09:01:05.715Z,14.60
2023-01-17T09:03:32.646Z,13.52
2023-01-17T09:06:06.274Z,13.10
2023-01-17T09:08:32.933Z,17.98
2023-01-17T09:11:02.299Z,23.50
2023-01-17T09:13:28.556Z,15.80
2023-01-17T09:15:58.441Z,23.80
2023-01-17T09:18:28.496Z,13.40
2023-01-17T09:20:55.628Z,14.90
2023-01-17T09:23:22.591Z,16.95
2023-01-17T09:25:59.771Z,21.00
2023-01-17T09:28:26.702Z,19.13
2023-01-17T09:30:53.601Z,19.17
2023-01-17T09:33:20.641Z,17.45
2023-01-17T09:35:47.053Z,18.33
2023-01-17T09:38:13.689Z,17.35
2023-01-17T09:40:47.205Z,20.77
2023-01-17T09:43:23.661Z,19.30
2023-01-17T09:45:50.250Z,14.63
2023-01-17T09:48:21.386Z,27.97
2023-01-17T09:50:50.508Z,20.50
2023-01-17T09:53:20.693Z,16.58
2023-01-17T09:55:48.795Z,15.32
2023-01-17T09:58:24.447Z,14.32
2023-01-17T10:01:07.503Z,23.92
2023-01-17T10:03:52.504Z,19.27
2023-01-17T10:06:24.828Z,27.42
2023-01-17T10:09:09.436Z,19.77
2023-01-17T10:11:44.946Z,19.85
2023-01-17T10:14:17.284Z,26.60
2023-01-17T10:16:52.439Z,21.88
2023-01-17T10:19:24.293Z,30.60
2023-01-17T10:21:53.601Z,22.77
2023-01-17T10:24:38.382Z,27.27
2023-01-17T10:27:12.132Z,27.20
2023-01-17T10:29:38.569Z,26.25
2023-01-17T10:32:05.120Z,25.00
2023-01-17T10:34:31.372Z,26.98
2023-01-17T10:37:01.418Z,24.70
2023-01-17T10:39:29.230Z,25.70
2023-01-17T10:41:58.046Z,28.13
2023-01-17T10:44:35.625Z,20.92
2023-01-17T10:47:01.873Z,24.08
2023-01-17T10:49:28.456Z,27.58
2023-01-17T10:52:00.189Z,23.38
2023-01-17T10:54:42.718Z,23.08
2023-01-17T10:57:14.432Z,17.88
2023-01-17T10:59:40.870Z,16.90
2023-01-17T11:02:38.039Z,23.42
2023-01-17T11:05:14.137Z,19.95
2023-01-17T11:07:56.296Z,21.67
2023-01-17T11:10:35.551Z,16.30
2023-01-17T11:13:02.647Z,20.23
2023-01-17T11:15:31.883Z,22.40
2023-01-17T11:18:02.880Z,21.92
2023-01-17T11:20:32.652Z,20.50
2023-01-17T11:23:05.020Z,23.52
2023-01-17T11:25:34.887Z,20.42
2023-01-17T11:28:02.814Z,22.38
2023-01-17T11:30:29.480Z,19.63
2023-01-17T11:33:00.095Z,24.57
2023-01-17T11:35:26.499Z,23.80
2023-01-17T11:37:58.686Z,19.77
2023-01-17T11:40:27.458Z,21.40
2023-01-17T11:43:12.703Z,18.17
2023-01-17T11:45:39.557Z,16.92
2023-01-17T11:48:08.948Z,21.60
2023-01-17T11:50:37.343Z,18.05
2023-01-17T11:53:14.572Z,23.38
2023-01-17T11:55:51.660Z,15.05
2023-01-17T11:58:19.541Z,18.08
2023-01-17T12:00:47.768Z,27.13
2023-01-17T12:03:17.293Z,16.50
2023-01-17T12:06:01.143Z,11.90
2023-01-17T12:08:51.192Z,16.60
2023-01-17T12:11:23.334Z,15.05
2023-01-17T12:14:08.737Z,13.85
2023-01-17T12:16:35.028Z,12.30
2023-01-17T12:19:20.474Z,10.38
2023-01-17T12:22:02.433Z,14.07
2023-01-17T12:24:28.984Z,8.18
2023-01-17T12:26:55.236Z,12.88
2023-01-17T12:29:40.429Z,8.93
2023-01-17T12:32:06.700Z,10.07
2023-01-17T12:34:41.876Z,15.10
2023-01-17T12:37:29.552Z,9.95
2023-01-17T12:40:04.844Z,11.30
2023-01-17T12:42:35.804Z,8.20
2023-01-17T12:45:07.275Z,10.85
2023-01-17T12:47:37.833Z,7.30
2023-01-17T12:50:15.745Z,8.18
2023-01-17T12:52:49.159Z,6.97
2023-01-17T12:55:19.158Z,7.10
2023-01-17T12:57:47.649Z,8.50
2023-01-17T13:00:19.595Z,12.15
2023-01-17T13:03:04.176Z,8.77
2023-01-17T13:05:38.261Z,7.97
2023-01-17T13:08:18.095Z,5.35
2023-01-17T13:10:48.485Z,5.10
2023-01-17T13:13:24.096Z,7.25
2023-01-17T13:15:54.095Z,7.85
2023-01-17T13:18:25.839Z,5.78
2023-01-17T13:21:13.628Z,6.20
2023-01-17T13:23:39.885Z,5.63
2023-01-17T13:26:12.632Z,6.72
2023-01-17T13:28:48.041Z,4.20
2023-01-17T13:31:14.418Z,7.55
2023-01-17T13:33:49.927Z,7.80
2023-01-17T13:36:34.584Z,6.65
2023-01-17T13:39:08.519Z,6.65
2023-01-17T13:41:43.821Z,7.15
2023-01-17T13:44:27.099Z,6.47
2023-01-17T13:47:01.340Z,7.88
2023-01-17T13:49:36.699Z,4.63
2023-01-17T13:52:11.022Z,4.38
2023-01-17T13:54:43.795Z,6.25
2023-01-17T13:57:30.366Z,7.72
2023-01-17T13:59:57.686Z,6.38
2023-01-17T14:02:33.148Z,5.50
2023-01-17T14:05:05.739Z,6.85
2023-01-17T14:07:33.718Z,6.40
2023-01-17T14:10:00.016Z,4.30
2023-01-17T14:12:32.441Z,5.63
2023-01-17T14:15:00.633Z,7.90
2023-01-17T14:17:34.043Z,5.68
2023-01-17T14:20:03.343Z,4.70
2023-01-17T14:22:41.535Z,5.03
2023-01-17T14:25:10.704Z,6.90
2023-01-17T14:27:45.282Z,5.00
2023-01-17T14:30:34.844Z,3.92
2023-01-17T14:33:01.272Z,8.98
2023-01-17T14:35:47.865Z,5.90
2023-01-17T14:38:31.678Z,7.05
2023-01-17T14:41:00.306Z,4.93
2023-01-17T14:43:28.637Z,6.50
2023-01-17T14:45:59.308Z,4.80
2023-01-17T14:48:25.942Z,5.38
2023-01-17T14:50:54.105Z,5.00
2023-01-17T14:53:21.805Z,5.80
2023-01-17T14:55:48.121Z,6.35
2023-01-17T14:58:18.470Z,5.40
2023-01-17T15:00:45.122Z,10.18
2023-01-17T15:03:12.692Z,5.50
2023-01-17T15:05:43.357Z,4.80
2023-01-17T15:08:12.648Z,6.20
2023-01-17T15:10:46.491Z,5.85
2023-01-17T15:13:18.093Z,8.82
2023-01-17T15:15:44.482Z,7.40
2023-01-17T15:18:13.631Z,4.85
2023-01-17T15:20:41.582Z,4.90
2023-01-17T15:23:14.337Z,13.65
2023-01-17T15:25:41.071Z,6.03
2023-01-17T15:28:09.948Z,8.63
2023-01-17T15:30:36.291Z,11.77
2023-01-17T15:33:02.712Z,10.60
2023-01-17T15:35:29.682Z,16.63
2023-01-17T15:37:58.117Z,14.52
2023-01-17T15:40:25.175Z,8.77
2023-01-17T15:43:01.976Z,8.98
2023-01-17T15:45:29.781Z,8.35
2023-01-17T15:48:14.899Z,10.73
2023-01-17T15:50:41.226Z,7.35
2023-01-17T15:53:27.587Z,10.15
2023-01-17T15:55:56.667Z,7.47
2023-01-17T15:58:27.620Z,6.53
2023-01-17T16:00:54.243Z,7.65
2023-01-17T16:03:24.802Z,6.17
2023-01-17T16:05:52.586Z,9.90
2023-01-17T16:08:26.669Z,9.88
2023-01-17T16:10:54.690Z,8.77
2023-01-17T16:13:21.865Z,8.93
2023-01-17T16:15:48.552Z,12.55
2023-01-17T16:18:16.716Z,10.77
2023-01-17T16:20:46.578Z,10.48
2023-01-17T16:23:12.997Z,12.60
2023-01-17T16:25:39.282Z,16.48
2023-01-17T16:28:05.859Z,15.98
2023-01-17T16:30:32.664Z,12.73
2023-01-17T16:32:59.451Z,14.77
2023-01-17T16:35:27.708Z,11.60
2023-01-17T16:37:55.229Z,11.07
2023-01-17T16:40:23.137Z,10.52
2023-01-17T16:42:49.588Z,13.25
2023-01-17T16:45:16.310Z,10.57
2023-01-17T16:47:43.713Z,8.30
2023-01-17T16:50:11.447Z,12.13
2023-01-17T16:55:05.032Z,9.70
2023-01-17T16:57:31.353Z,12.10
2023-01-17T16:59:57.662Z,9.15
2023-01-17T17:02:24.070Z,10.80
2023-01-17T17:04:50.495Z,10.10
2023-01-17T17:07:16.825Z,11.77
2023-01-17T17:09:43.140Z,8.57
2023-01-17T17:12:09.625Z,11.90
2023-01-17T17:14:36.180Z,10.15
2023-01-17T17:17:02.528Z,10.20
2023-01-17T17:19:28.879Z,8.38
2023-01-17T17:21:57.486Z,9.80
2023-01-17T17:24:23.797Z,8.35
2023-01-17T17:26:50.179Z,10.75
2023-01-17T17:29:16.599Z,8.90
2023-01-17T17:31:43.133Z,11.77
2023-01-17T17:34:13.107Z,8.35
2023-01-17T17:36:39.531Z,8.80
2023-01-17T17:39:09.062Z,8.55
2023-01-17T17:41:36.317Z,7.30
2023-01-17T17:44:03.435Z,7.55
2023-01-17T17:46:30.257Z,7.30
2023-01-17T17:48:57.174Z,7.85
2023-01-17T17:51:26.636Z,8.30
2023-01-17T17:53:54.577Z,7.53
2023-01-17T17:56:21.689Z,7.95
2023-01-17T17:58:49.537Z,9.48
2023-01-17T18:01:16.109Z,11.77
2023-01-17T18:03:42.576Z,6.72
2023-01-17T18:06:10.220Z,9.38
2023-01-17T18:11:08.155Z,10.65
2023-01-17T18:13:34.547Z,9.02
2023-01-17T18:16:01.763Z,9.18
2023-01-17T18:18:28.160Z,13.65
2023-01-17T18:20:54.432Z,9.73
2023-01-17T18:23:20.820Z,11.60
2023-01-17T18:25:47.135Z,11.27
2023-01-17T18:28:13.596Z,14.32
2023-01-17T18:30:39.969Z,13.93
2023-01-17T18:33:06.477Z,13.70
2023-01-17T18:35:32.817Z,13.15
2023-01-17T18:37:59.100Z,18.00
2023-01-17T18:40:25.415Z,18.60
2023-01-17T18:42:51.753Z,16.02
2023-01-17T18:45:18.090Z,17.30
2023-01-17T18:47:44.360Z,13.90
2023-01-17T18:50:10.643Z,15.07
2023-01-17T18:52:38.672Z,13.23
2023-01-17T18:55:05.361Z,11.43
2023-01-17T18:57:31.814Z,12.07
2023-01-17T18:59:58.083Z,10.68
2023-01-17T19:02:24.442Z,11.85
2023-01-17T19:04:50.780Z,18.20
2023-01-17T19:07:17.115Z,11.15
2023-01-17T19:09:44.219Z,14.27
2023-01-17T19:12:10.611Z,10.32
2023-01-17T19:14:36.876Z,11.20
2023-01-17T19:17:03.202Z,11.82
2023-01-17T19:19:29.557Z,12.32
2023-01-17T19:21:55.872Z,16.40
2023-01-17T19:24:22.221Z,11.50
2023-01-17T19:26:51.153Z,12.80
2023-01-17T19:29:17.568Z,15.13
2023-01-17T19:31:44.072Z,10.70
2023-01-17T19:34:13.777Z,13.82
2023-01-17T19:36:40.453Z,9.35
2023-01-17T19:39:09.427Z,11.52
2023-01-17T19:41:37.211Z,10.60
2023-01-17T19:44:05.182Z,10.20
2023-01-17T19:46:32.430Z,10.02
2023-01-17T19:48:59.526Z,12.93
2023-01-17T19:51:29.878Z,11.27
2023-01-17T19:53:56.552Z,10.43
2023-01-17T19:56:24.737Z,10.57
2023-01-17T19:58:52.044Z,12.52
2023-01-17T20:01:20.387Z,10.90
2023-01-17T20:03:48.589Z,10.73
2023-01-17T20:06:17.010Z,11.45
2023-01-17T20:08:43.645Z,12.32
2023-01-17T20:11:13.367Z,14.02
2023-01-17T20:13:40.031Z,13.02
2023-01-17T20:16:07.330Z,13.80
2023-01-17T20:18:34.512Z,10.75
2023-01-17T20:21:12.316Z,12.98
2023-01-17T20:23:42.217Z,11.80
2023-01-17T20:26:09.118Z,12.63
2023-01-17T20:28:36.303Z,14.30
2023-01-17T20:31:10.132Z,10.57
2023-01-17T20:33:36.517Z,9.68
2023-01-17T20:36:10.122Z,10.70
2023-01-17T20:38:46.499Z,24.63
2023-01-17T20:41:17.342Z,8.98
2023-01-17T20:43:44.566Z,12.68
2023-01-17T20:46:11.865Z,11.40
2023-01-17T20:48:43.241Z,10.50
2023-01-17T20:51:11.665Z,10.73
2023-01-17T20:53:38.769Z,9.25
2023-01-17T20:56:05.530Z,11.57
2023-01-17T20:58:33.055Z,14.83
2023-01-17T21:01:02.097Z,9.82
2023-01-17T21:03:33.718Z,14.65
2023-01-17T21:06:05.150Z,10.82
2023-01-17T21:08:32.429Z,9.82
2023-01-17T21:10:58.800Z,14.13
2023-01-17T21:13:25.402Z,10.43
2023-01-17T21:15:52.036Z,8.27
2023-01-17T21:18:19.613Z,12.73
2023-01-17T21:20:46.687Z,10.70
2023-01-17T21:23:17.943Z,9.82
2023-01-17T21:26:04.482Z,11.55
2023-01-17T21:28:33.513Z,11.82
2023-01-17T21:31:00.019Z,8.82
2023-01-17T21:33:28.486Z,10.25
2023-01-17T21:35:55.055Z,12.25
2023-01-17T21:38:21.357Z,13.85
2023-01-17T21:40:47.685Z,12.02
2023-01-17T21:43:14.939Z,15.40
2023-01-17T21:45:42.004Z,13.15
2023-01-17T21:48:13.423Z,13.05
2023-01-17T21:50:39.761Z,11.52
2023-01-17T21:53:06.422Z,13.32
2023-01-17T21:55:51.587Z,11.80
2023-01-17T21:58:36.472Z,12.77
2023-01-17T22:01:16.040Z,10.93
2023-01-17T22:03:43.015Z,11.77
2023-01-17T22:06:10.228Z,12.13
2023-01-17T22:08:37.256Z,11.70
2023-01-17T22:11:05.070Z,8.70
2023-01-17T22:13:32.313Z,10.10
2023-01-17T22:15:59.569Z,13.18
2023-01-17T22:18:26.072Z,11.18
2023-01-17T22:20:52.382Z,11.57
2023-01-17T22:23:18.799Z,13.13
2023-01-17T22:25:45.237Z,11.45
2023-01-17T22:28:11.547Z,12.55
2023-01-17T22:30:38.087Z,12.07
2023-01-17T22:33:04.452Z,16.25
2023-01-17T22:35:30.725Z,13.40
2023-01-17T22:37:57.072Z,12.57
2023-01-17T22:40:23.580Z,17.13
2023-01-17T22:42:49.916Z,13.77
2023-01-17T22:45:17.372Z,15.23
2023-01-17T22:47:43.767Z,15.00
2023-01-17T22:50:10.613Z,14.15
2023-01-17T22:52:36.945Z,14.68
2023-01-17T22:55:04.361Z,15.10
2023-01-17T22:57:30.743Z,14.25
2023-01-17T22:59:57.032Z,16.17
2023-01-17T23:02:23.398Z,18.17
2023-01-17T23:04:49.779Z,15.25
2023-01-17T23:07:16.259Z,13.73
2023-01-17T23:09:42.616Z,17.10
2023-01-17T23:12:08.892Z,18.52
2023-01-17T23:14:54.349Z,15.70
2023-01-17T23:17:40.897Z,15.27
2023-01-17T23:20:08.670Z,22.05
2023-01-17T23:22:35.337Z,19.85
2023-01-17T23:25:09.348Z,15.95
2023-01-17T23:28:01.317Z,19.55
2023-01-17T23:30:29.079Z,15.43
2023-01-17T23:32:56.981Z,16.58
2023-01-17T23:35:25.146Z,12.55
2023-01-17T23:38:10.225Z,16.33
2023-01-17T23:40:37.392Z,14.48
2023-01-17T23:43:22.578Z,15.00
2023-01-17T23:45:49.837Z,14.48
2023-01-17T23:48:16.559Z,15.82
2023-01-17T23:50:46.364Z,13.80
2023-01-17T23:53:16.034Z,14.15
2023-01-17T23:55:43.461Z,17.23
2023-01-17T23:58:10.863Z,17.65
